createdAt,value
2022-11-25T00:01:26.077Z,26.30
2022-11-25T00:03:55.265Z,24.37
2022-11-25T00:06:27.815Z,30.37
2022-11-25T00:09:00.331Z,23.57
2022-11-25T00:11:27.906Z,22.87
2022-11-25T00:13:56.544Z,29.20
2022-11-25T00:16:26.585Z,25.40
2022-11-25T00:18:55.644Z,22.80
2022-11-25T00:21:25.437Z,26.43
2022-11-25T00:24:03.899Z,23.93
2022-11-25T00:26:35.528Z,22.30
2022-11-25T00:29:04.407Z,25.10
2022-11-25T00:31:34.775Z,21.10
2022-11-25T00:34:02.439Z,26.00
2022-11-25T00:36:32.599Z,28.33
2022-11-25T00:39:05.284Z,23.53
2022-11-25T00:41:51.347Z,18.53
2022-11-25T00:44:39.637Z,27.10
2022-11-25T00:47:14.405Z,25.83
2022-11-25T00:49:49.110Z,36.53
2022-11-25T00:52:24.980Z,33.03
2022-11-25T00:54:52.878Z,27.63
2022-11-25T00:57:22.247Z,26.17
2022-11-25T00:59:49.760Z,28.90
2022-11-25T01:02:18.767Z,25.17
2022-11-25T01:04:46.763Z,29.27
2022-11-25T01:07:14.477Z,26.37
2022-11-25T01:09:41.653Z,27.70
2022-11-25T01:12:08.860Z,23.80
2022-11-25T01:14:36.802Z,30.67
2022-11-25T01:17:04.601Z,29.23
2022-11-25T01:19:31.782Z,29.10
2022-11-25T01:21:58.890Z,30.20
2022-11-25T01:24:26.615Z,30.43
2022-11-25T01:26:55.646Z,29.97
2022-11-25T01:29:23.202Z,31.90
2022-11-25T01:31:50.867Z,34.63
2022-11-25T01:34:23.668Z,27.40
2022-11-25T01:36:51.188Z,33.47
2022-11-25T01:39:27.065Z,23.53
2022-11-25T01:41:59.183Z,33.17
2022-11-25T01:44:31.083Z,30.37
2022-11-25T01:47:10.763Z,34.23
2022-11-25T01:49:37.838Z,28.83
2022-11-25T01:52:13.663Z,34.30
2022-11-25T01:54:59.579Z,36.13
2022-11-25T01:57:34.886Z,35.07
2022-11-25T02:00:05.578Z,29.10
2022-11-25T02:02:33.028Z,25.33
2022-11-25T02:05:03.525Z,36.57
2022-11-25T02:07:36.627Z,32.03
2022-11-25T02:10:09.374Z,35.50
2022-11-25T02:12:38.910Z,29.53
2022-11-25T02:15:07.410Z,27.33
2022-11-25T02:17:35.097Z,26.30
2022-11-25T02:20:09.034Z,30.10
2022-11-25T02:22:47.725Z,27.90
2022-11-25T02:25:35.312Z,33.40
2022-11-25T02:28:07.192Z,28.13
2022-11-25T02:30:35.004Z,29.77
2022-11-25T02:33:02.765Z,33.33
2022-11-25T02:35:31.629Z,31.43
2022-11-25T02:38:17.305Z,29.87
2022-11-25T02:41:00.158Z,33.47
2022-11-25T02:43:27.363Z,35.87
2022-11-25T02:46:02.540Z,29.70
2022-11-25T02:49:00.750Z,31.40
2022-11-25T02:51:22.416Z,28.87
2022-11-25T02:53:49.988Z,30.47
2022-11-25T02:56:20.048Z,29.10
2022-11-25T02:58:47.202Z,35.27
2022-11-25T03:01:14.369Z,31.90
2022-11-25T03:03:41.556Z,31.93
2022-11-25T03:06:09.350Z,27.83
2022-11-25T03:08:36.979Z,26.20
2022-11-25T03:11:04.478Z,27.03
2022-11-25T03:13:31.563Z,34.73
2022-11-25T03:16:01.590Z,30.30
2022-11-25T03:18:28.839Z,29.90
2022-11-25T03:20:56.565Z,31.50
2022-11-25T03:23:24.166Z,26.80
2022-11-25T03:25:51.324Z,35.03
2022-11-25T03:28:18.502Z,35.67
2022-11-25T03:30:45.780Z,35.67
2022-11-25T03:33:13.017Z,31.43
2022-11-25T03:35:40.380Z,36.00
2022-11-25T03:38:07.538Z,30.97
2022-11-25T03:40:34.599Z,30.90
2022-11-25T03:43:01.806Z,27.60
2022-11-25T03:45:28.982Z,33.13
2022-11-25T03:47:56.079Z,32.70
2022-11-25T03:50:23.228Z,34.77
2022-11-25T03:52:50.330Z,30.47
2022-11-25T03:55:17.507Z,30.07
2022-11-25T03:57:44.569Z,26.73
2022-11-25T04:00:12.220Z,33.70
2022-11-25T04:02:39.333Z,29.33
2022-11-25T04:05:07.020Z,28.67
2022-11-25T04:07:34.195Z,31.80
2022-11-25T04:10:01.395Z,28.60
2022-11-25T04:12:46.881Z,30.50
2022-11-25T04:15:16.166Z,25.57
2022-11-25T04:17:43.402Z,33.93
2022-11-25T04:20:11.775Z,28.20
2022-11-25T04:22:38.970Z,36.87
2022-11-25T04:25:06.536Z,25.67
2022-11-25T04:27:33.974Z,29.53
2022-11-25T04:30:01.209Z,29.63
2022-11-25T04:32:28.301Z,28.47
2022-11-25T04:34:55.485Z,28.40
2022-11-25T04:37:22.618Z,33.50
2022-11-25T04:39:49.872Z,28.60
2022-11-25T04:42:32.141Z,30.63
2022-11-25T04:45:33.438Z,35.43
2022-11-25T04:47:59.693Z,29.50
2022-11-25T04:50:26.853Z,29.20
2022-11-25T04:52:53.999Z,30.20
2022-11-25T04:55:21.111Z,34.13
2022-11-25T04:57:48.255Z,31.03
2022-11-25T05:00:15.707Z,33.77
2022-11-25T05:02:42.988Z,28.33
2022-11-25T05:05:10.249Z,30.50
2022-11-25T05:07:37.510Z,30.17
2022-11-25T05:10:05.632Z,35.80
2022-11-25T05:12:32.981Z,32.50
2022-11-25T05:15:00.201Z,25.03
2022-11-25T05:17:29.695Z,28.77
2022-11-25T05:19:57.098Z,28.93
2022-11-25T05:22:27.138Z,26.13
2022-11-25T05:24:54.921Z,29.70
2022-11-25T05:27:23.081Z,27.67
2022-11-25T05:29:55.657Z,33.67
2022-11-25T05:32:23.957Z,33.20
2022-11-25T05:34:51.093Z,28.33
2022-11-25T05:37:22.854Z,27.53
2022-11-25T05:39:51.740Z,33.07
2022-11-25T05:42:18.806Z,29.27
2022-11-25T05:44:45.983Z,38.30
2022-11-25T05:47:13.122Z,33.40
2022-11-25T05:49:40.195Z,32.47
2022-11-25T05:52:07.268Z,26.37
2022-11-25T05:54:34.735Z,28.20
2022-11-25T05:57:02.100Z,28.90
2022-11-25T05:59:29.342Z,25.90
2022-11-25T06:01:56.429Z,32.83
2022-11-25T06:04:23.558Z,31.60
2022-11-25T06:06:50.662Z,27.17
2022-11-25T06:09:17.761Z,28.07
2022-11-25T06:11:44.914Z,25.27
2022-11-25T06:14:12.093Z,57.23
2022-11-25T06:16:41.052Z,44.67
2022-11-25T06:19:08.179Z,49.13
2022-11-25T06:21:35.419Z,54.90
2022-11-25T06:24:02.709Z,58.30
2022-11-25T06:26:29.868Z,46.37
2022-11-25T06:28:57.319Z,50.90
2022-11-25T06:31:26.275Z,41.93
2022-11-25T06:33:54.033Z,41.03
2022-11-25T06:36:22.599Z,43.47
2022-11-25T06:38:52.224Z,44.77
2022-11-25T06:41:20.677Z,37.53
2022-11-25T06:43:48.010Z,34.77
2022-11-25T06:46:21.369Z,34.90
2022-11-25T06:48:54.642Z,36.30
2022-11-25T06:51:21.841Z,32.43
2022-11-25T06:53:49.023Z,26.80
2022-11-25T06:56:28.648Z,31.70
2022-11-25T06:58:56.369Z,28.30
2022-11-25T07:01:26.016Z,26.17
2022-11-25T07:03:55.555Z,33.27
2022-11-25T07:06:23.046Z,27.73
2022-11-25T07:08:51.376Z,22.57
2022-11-25T07:11:19.047Z,26.60
2022-11-25T07:13:47.206Z,21.87
2022-11-25T07:16:18.440Z,28.00
2022-11-25T07:18:45.628Z,21.13
2022-11-25T07:21:16.208Z,23.20
2022-11-25T07:23:44.377Z,23.97
2022-11-25T07:26:15.952Z,30.07
2022-11-25T07:28:44.316Z,21.60
2022-11-25T07:31:24.425Z,19.77
2022-11-25T07:34:03.253Z,27.37
2022-11-25T07:36:32.058Z,16.47
2022-11-25T07:39:01.379Z,20.17
2022-11-25T07:41:32.202Z,23.20
2022-11-25T07:44:02.118Z,16.47
2022-11-25T07:46:31.856Z,22.10
2022-11-25T07:49:02.162Z,18.17
2022-11-25T07:51:39.379Z,15.77
2022-11-25T07:54:08.499Z,17.80
2022-11-25T07:56:37.480Z,20.10
2022-11-25T07:59:08.675Z,18.23
2022-11-25T08:01:38.718Z,12.83
2022-11-25T08:04:08.615Z,16.60
2022-11-25T08:06:40.166Z,20.43
2022-11-25T08:09:07.334Z,17.30
2022-11-25T08:11:34.823Z,16.67
2022-11-25T08:14:02.808Z,13.43
2022-11-25T08:16:33.475Z,15.70
2022-11-25T08:19:02.810Z,23.70
2022-11-25T08:21:30.507Z,19.03
2022-11-25T08:23:58.154Z,13.00
2022-11-25T08:26:27.796Z,22.00
2022-11-25T08:28:55.082Z,19.37
2022-11-25T08:31:34.620Z,20.23
2022-11-25T08:34:03.435Z,21.37
2022-11-25T08:36:33.897Z,20.57
2022-11-25T08:39:03.281Z,17.37
2022-11-25T08:41:35.304Z,20.00
2022-11-25T08:44:05.028Z,11.47
2022-11-25T08:46:36.410Z,16.00
2022-11-25T08:49:09.439Z,14.00
2022-11-25T08:51:39.084Z,14.30
2022-11-25T08:54:07.769Z,18.60
2022-11-25T08:56:35.579Z,10.63
2022-11-25T08:59:03.415Z,19.80
2022-11-25T09:01:30.774Z,14.90
2022-11-25T09:03:59.002Z,17.90
2022-11-25T09:06:27.491Z,14.50
2022-11-25T09:09:00.561Z,16.77
2022-11-25T09:11:28.096Z,16.23
2022-11-25T09:13:55.468Z,17.33
2022-11-25T09:16:23.217Z,12.60
2022-11-25T09:18:55.550Z,19.40
2022-11-25T09:21:27.492Z,19.60
2022-11-25T09:23:54.955Z,18.70
2022-11-25T09:26:31.031Z,15.83
2022-11-25T09:28:58.457Z,12.53
2022-11-25T09:31:25.744Z,12.17
2022-11-25T09:33:53.125Z,17.83
2022-11-25T09:36:21.234Z,18.83
2022-11-25T09:38:48.557Z,10.90
2022-11-25T09:41:44.240Z,15.60
2022-11-25T09:44:51.178Z,14.23
2022-11-25T09:47:24.141Z,12.53
2022-11-25T09:50:05.910Z,16.07
2022-11-25T09:53:00.092Z,10.57
2022-11-25T09:55:33.764Z,15.33
2022-11-25T09:58:24.165Z,14.00
2022-11-25T10:00:52.965Z,21.60
2022-11-25T10:03:39.801Z,16.73
2022-11-25T10:06:25.094Z,16.33
2022-11-25T10:08:58.595Z,14.53
2022-11-25T10:11:43.768Z,14.57
2022-11-25T10:14:31.086Z,26.17
2022-11-25T10:17:11.650Z,12.80
2022-11-25T10:19:51.807Z,8.83
2022-11-25T10:22:41.705Z,15.00
2022-11-25T10:25:20.273Z,13.77
2022-11-25T10:28:01.302Z,18.20
2022-11-25T10:30:38.629Z,14.80
2022-11-25T10:33:25.031Z,16.33
2022-11-25T10:36:04.368Z,13.20
2022-11-25T10:38:42.308Z,17.67
2022-11-25T10:41:15.937Z,16.10
2022-11-25T10:43:45.967Z,18.80
2022-11-25T10:46:19.009Z,11.27
2022-11-25T10:48:59.569Z,16.43
2022-11-25T10:51:37.407Z,13.33
2022-11-25T10:54:27.913Z,12.50
2022-11-25T10:57:01.114Z,16.30
2022-11-25T10:59:34.620Z,11.60
2022-11-25T11:02:36.017Z,14.93
2022-11-25T11:05:08.942Z,16.43
2022-11-25T11:07:42.863Z,11.70
2022-11-25T11:10:17.661Z,11.77
2022-11-25T11:12:59.553Z,20.10
2022-11-25T11:15:47.180Z,17.13
2022-11-25T11:18:37.253Z,20.60
2022-11-25T11:21:07.241Z,18.17
2022-11-25T11:23:49.288Z,11.07
2022-11-25T11:26:25.131Z,11.97
2022-11-25T11:29:19.722Z,10.10
2022-11-25T11:32:00.374Z,12.50
2022-11-25T11:34:39.133Z,15.50
2022-11-25T11:37:27.145Z,13.67
2022-11-25T11:40:39.595Z,11.00
2022-11-25T11:43:06.677Z,9.00
2022-11-25T11:46:14.231Z,20.40
2022-11-25T11:48:51.548Z,13.13
2022-11-25T11:51:28.024Z,13.03
2022-11-25T11:53:55.335Z,10.30
2022-11-25T11:56:42.632Z,28.20
2022-11-25T11:59:09.798Z,15.00
2022-11-25T12:01:49.547Z,10.40
2022-11-25T12:04:55.638Z,17.20
2022-11-25T12:07:59.986Z,8.73
2022-11-25T12:10:48.600Z,11.83
2022-11-25T12:13:20.347Z,15.17
2022-11-25T12:16:13.478Z,15.67
2022-11-25T12:19:00.929Z,11.67
2022-11-25T12:21:52.425Z,16.20
2022-11-25T12:24:33.770Z,12.23
2022-11-25T12:27:09.234Z,14.87
2022-11-25T12:29:45.804Z,15.40
2022-11-25T12:32:21.532Z,14.17
2022-11-25T12:35:05.827Z,16.80
2022-11-25T12:37:43.894Z,18.13
2022-11-25T12:40:15.481Z,17.50
2022-11-25T12:42:43.983Z,17.70
2022-11-25T12:45:25.904Z,18.20
2022-11-25T12:47:53.791Z,20.37
2022-11-25T12:50:32.966Z,21.30
2022-11-25T12:53:04.170Z,16.67
2022-11-25T12:55:33.625Z,14.10
2022-11-25T12:58:18.937Z,16.80
2022-11-25T13:00:54.931Z,14.47
2022-11-25T13:04:10.227Z,19.23
2022-11-25T13:07:22.543Z,15.03
2022-11-25T13:10:13.787Z,16.93
2022-11-25T13:13:18.108Z,13.50
2022-11-25T13:15:49.049Z,26.43
2022-11-25T13:18:19.844Z,21.20
2022-11-25T13:20:53.988Z,21.00
2022-11-25T13:23:24.357Z,23.97
2022-11-25T13:25:53.357Z,17.03
2022-11-25T13:28:38.134Z,22.40
2022-11-25T13:31:14.446Z,24.27
2022-11-25T13:33:44.627Z,18.07
2022-11-25T13:36:23.042Z,16.93
2022-11-25T13:38:50.221Z,23.87
2022-11-25T13:41:20.315Z,19.90
2022-11-25T13:44:12.090Z,27.33
2022-11-25T13:46:43.384Z,20.17
2022-11-25T13:50:00.601Z,23.10
2022-11-25T13:52:48.216Z,27.40
2022-11-25T13:55:18.363Z,17.33
2022-11-25T13:58:11.455Z,26.03
2022-11-25T14:01:01.721Z,24.33
2022-11-25T14:03:28.857Z,25.37
2022-11-25T14:06:12.484Z,27.83
2022-11-25T14:08:45.071Z,16.87
2022-11-25T14:11:32.446Z,18.73
2022-11-25T14:14:20.296Z,20.30
2022-11-25T14:17:24.472Z,27.40
2022-11-25T14:20:30.925Z,21.80
2022-11-25T14:23:31.541Z,29.60
2022-11-25T14:26:20.857Z,26.90
2022-11-25T14:29:00.767Z,24.67
2022-11-25T14:31:39.047Z,29.33
2022-11-25T14:34:35.752Z,24.13
2022-11-25T14:37:30.477Z,22.17
2022-11-25T14:40:08.803Z,21.03
2022-11-25T14:42:39.497Z,25.30
2022-11-25T14:45:26.174Z,26.50
2022-11-25T14:47:53.512Z,24.70
2022-11-25T14:50:36.767Z,31.67
2022-11-25T14:53:12.139Z,23.83
2022-11-25T14:55:39.371Z,28.93
2022-11-25T14:58:13.220Z,26.83
2022-11-25T15:01:14.174Z,28.27
2022-11-25T15:03:41.316Z,27.10
2022-11-25T15:06:14.163Z,29.53
2022-11-25T15:08:44.973Z,31.23
2022-11-25T15:11:20.124Z,25.53
2022-11-25T15:13:49.757Z,26.37
2022-11-25T15:16:20.469Z,20.87
2022-11-25T15:18:58.717Z,29.73
2022-11-25T15:22:07.553Z,22.00
2022-11-25T15:24:31.086Z,25.87
2022-11-25T15:27:01.226Z,17.27
2022-11-25T15:29:31.174Z,26.33
2022-11-25T15:32:00.253Z,19.33
2022-11-25T15:34:29.895Z,33.00
2022-11-25T15:37:02.518Z,25.03
2022-11-25T15:39:30.873Z,27.93
2022-11-25T15:42:08.050Z,27.93
2022-11-25T15:44:44.375Z,24.40
2022-11-25T15:47:29.527Z,26.47
2022-11-25T15:50:18.083Z,19.37
2022-11-25T15:52:49.031Z,17.87
2022-11-25T15:55:24.893Z,21.30
2022-11-25T15:57:53.838Z,24.47
2022-11-25T16:00:25.067Z,19.10
2022-11-25T16:02:58.231Z,25.67
2022-11-25T16:05:31.968Z,26.10
2022-11-25T16:08:19.051Z,23.03
2022-11-25T16:10:46.125Z,24.23
2022-11-25T16:13:23.085Z,20.60
2022-11-25T16:15:53.283Z,21.53
2022-11-25T16:18:39.872Z,27.73
2022-11-25T16:21:21.334Z,21.63
2022-11-25T16:24:19.119Z,21.90
2022-11-25T16:26:53.941Z,23.63
2022-11-25T16:29:30.340Z,21.60
2022-11-25T16:31:58.328Z,24.80
2022-11-25T16:34:26.792Z,25.40
2022-11-25T16:36:54.582Z,21.60
2022-11-25T16:39:21.769Z,20.07
2022-11-25T16:41:58.568Z,20.70
2022-11-25T16:44:27.391Z,24.40
2022-11-25T16:46:55.044Z,22.50
2022-11-25T16:49:22.865Z,22.30
2022-11-25T16:51:51.056Z,28.10
2022-11-25T16:54:19.784Z,21.00
2022-11-25T16:56:50.598Z,34.63
2022-11-25T16:59:42.946Z,25.50
2022-11-25T17:02:21.471Z,33.13
2022-11-25T17:04:49.228Z,29.87
2022-11-25T17:07:34.417Z,31.20
2022-11-25T17:10:04.832Z,28.57
2022-11-25T17:12:34.529Z,33.97
2022-11-25T17:15:04.765Z,31.60
2022-11-25T17:17:32.541Z,32.63
2022-11-25T17:19:59.950Z,34.90
2022-11-25T17:22:28.681Z,32.03
2022-11-25T17:24:57.649Z,36.00
2022-11-25T17:27:31.282Z,28.10
2022-11-25T17:30:01.363Z,28.10
2022-11-25T17:32:28.647Z,26.50
2022-11-25T17:34:55.842Z,32.03
2022-11-25T17:37:24.778Z,27.47
2022-11-25T17:39:53.666Z,34.20
2022-11-25T17:42:29.153Z,24.80
2022-11-25T17:44:59.199Z,40.80
2022-11-25T17:47:26.399Z,32.33
2022-11-25T17:49:54.529Z,28.90
2022-11-25T17:52:21.784Z,34.53
2022-11-25T17:54:48.994Z,38.23
2022-11-25T17:57:21.475Z,38.17
2022-11-25T17:59:49.296Z,34.60
2022-11-25T18:02:18.709Z,31.57
2022-11-25T18:04:46.017Z,30.77
2022-11-25T18:07:13.255Z,38.00
2022-11-25T18:09:40.699Z,33.00
2022-11-25T18:12:19.613Z,43.00
2022-11-25T18:14:46.883Z,32.80
2022-11-25T18:17:18.092Z,30.03
2022-11-25T18:19:48.637Z,29.70
2022-11-25T18:22:20.343Z,31.13
2022-11-25T18:24:50.408Z,30.27
2022-11-25T18:27:27.430Z,35.90
2022-11-25T18:29:56.532Z,34.77
2022-11-25T18:32:25.135Z,40.20
2022-11-25T18:34:52.452Z,46.00
2022-11-25T18:37:19.761Z,38.07
2022-11-25T18:39:46.987Z,43.83
2022-11-25T18:42:26.493Z,32.87
2022-11-25T18:44:56.940Z,28.67
2022-11-25T18:47:24.320Z,34.10
2022-11-25T18:49:55.917Z,34.23
2022-11-25T18:52:24.802Z,31.20
2022-11-25T18:54:52.150Z,27.77
2022-11-25T18:57:19.517Z,26.90
2022-11-25T18:59:52.786Z,28.90
2022-11-25T19:02:27.399Z,32.17
2022-11-25T19:04:54.656Z,31.23
2022-11-25T19:07:21.859Z,32.73
2022-11-25T19:09:49.030Z,29.20
2022-11-25T19:12:19.433Z,33.13
2022-11-25T19:14:47.844Z,34.43
2022-11-25T19:17:21.311Z,33.50
2022-11-25T19:19:48.447Z,34.67
2022-11-25T19:22:17.857Z,29.60
2022-11-25T19:24:46.306Z,38.83
2022-11-25T19:27:21.213Z,39.43
2022-11-25T19:29:48.725Z,31.53
2022-11-25T19:32:23.071Z,39.63
2022-11-25T19:35:00.207Z,26.70
2022-11-25T19:37:30.400Z,28.40
2022-11-25T19:39:57.640Z,30.83
2022-11-25T19:42:25.841Z,32.43
2022-11-25T19:44:55.302Z,30.47
2022-11-25T19:47:25.086Z,31.03
2022-11-25T19:49:56.080Z,28.33
2022-11-25T19:52:34.984Z,31.13
2022-11-25T19:55:09.933Z,28.30
2022-11-25T19:57:37.064Z,28.70
2022-11-25T20:00:04.764Z,22.97
2022-11-25T20:02:32.081Z,28.10
2022-11-25T20:04:59.364Z,28.67
2022-11-25T20:07:27.367Z,33.07
2022-11-25T20:09:56.272Z,32.60
2022-11-25T20:12:29.780Z,29.33
2022-11-25T20:14:57.755Z,31.07
2022-11-25T20:17:31.489Z,23.23
2022-11-25T20:20:03.004Z,26.57
2022-11-25T20:22:36.163Z,28.83
2022-11-25T20:25:07.119Z,27.00
2022-11-25T20:27:34.618Z,24.07
2022-11-25T20:30:03.197Z,32.50
2022-11-25T20:32:34.182Z,26.83
2022-11-25T20:35:01.268Z,25.73
2022-11-25T20:37:30.150Z,25.93
2022-11-25T20:40:03.398Z,30.30
2022-11-25T20:42:30.901Z,22.30
2022-11-25T20:44:58.412Z,26.97
2022-11-25T20:47:27.637Z,23.80
2022-11-25T20:49:55.477Z,22.33
2022-11-25T20:52:30.615Z,22.73
2022-11-25T20:54:58.988Z,21.43
2022-11-25T20:57:26.415Z,16.93
2022-11-25T20:59:53.597Z,21.83
2022-11-25T21:02:21.718Z,21.00
2022-11-25T21:04:49.294Z,21.50
2022-11-25T21:07:18.142Z,16.37
2022-11-25T21:09:45.657Z,13.70
2022-11-25T21:12:18.794Z,18.70
2022-11-25T21:14:47.138Z,14.60
2022-11-25T21:17:14.225Z,15.27
2022-11-25T21:19:41.412Z,10.60
2022-11-25T21:22:13.782Z,13.07
2022-11-25T21:24:42.163Z,10.70
2022-11-25T21:27:15.146Z,9.40
2022-11-25T21:29:45.197Z,11.33
2022-11-25T21:32:24.264Z,15.57
2022-11-25T21:34:51.566Z,9.63
2022-11-25T21:37:26.929Z,9.20
2022-11-25T21:39:54.223Z,7.87
2022-11-25T21:42:22.314Z,9.13
2022-11-25T21:44:50.893Z,12.33
2022-11-25T21:47:21.710Z,7.77
2022-11-25T21:49:49.932Z,8.77
2022-11-25T21:52:17.498Z,8.37
2022-11-25T21:54:45.139Z,8.23
2022-11-25T21:57:17.475Z,7.80
2022-11-25T21:59:45.905Z,7.87
2022-11-25T22:02:21.874Z,7.00
2022-11-25T22:04:49.377Z,7.10
2022-11-25T22:07:16.935Z,7.17
2022-11-25T22:09:44.340Z,7.40
2022-11-25T22:12:28.388Z,8.00
2022-11-25T22:14:57.734Z,6.40
2022-11-25T22:17:26.044Z,6.53
2022-11-25T22:19:53.626Z,7.17
2022-11-25T22:22:21.082Z,5.90
2022-11-25T22:24:48.313Z,5.60
2022-11-25T22:27:22.379Z,6.47
2022-11-25T22:29:50.041Z,5.87
2022-11-25T22:32:18.320Z,5.70
2022-11-25T22:34:45.823Z,6.33
2022-11-25T22:37:18.091Z,6.30
2022-11-25T22:39:45.610Z,6.20
2022-11-25T22:42:39.112Z,6.13
2022-11-25T22:45:07.938Z,5.33
2022-11-25T22:47:43.953Z,5.30
2022-11-25T22:50:14.081Z,5.00
2022-11-25T22:52:41.200Z,4.67
2022-11-25T22:55:22.717Z,5.10
2022-11-25T22:57:52.262Z,5.20
2022-11-25T23:00:32.221Z,5.10
2022-11-25T23:03:00.624Z,4.70
2022-11-25T23:05:32.928Z,4.67
2022-11-25T23:08:13.173Z,3.90
2022-11-25T23:10:41.041Z,5.40
2022-11-25T23:13:08.499Z,4.10
2022-11-25T23:15:36.647Z,4.30
2022-11-25T23:18:07.660Z,4.90
2022-11-25T23:20:39.808Z,3.80
2022-11-25T23:23:15.983Z,3.83
2022-11-25T23:25:43.837Z,3.80
2022-11-25T23:28:11.401Z,3.50
2022-11-25T23:30:40.938Z,3.57
2022-11-25T23:33:19.076Z,3.77
2022-11-25T23:35:46.325Z,3.90
2022-11-25T23:38:18.287Z,3.70
2022-11-25T23:40:45.408Z,3.50
2022-11-25T23:43:14.320Z,3.07
2022-11-25T23:45:50.879Z,3.33
2022-11-25T23:48:20.155Z,3.30
2022-11-25T23:50:47.684Z,3.33
2022-11-25T23:53:36.742Z,3.73
2022-11-25T23:56:03.990Z,3.70
2022-11-25T23:58:31.261Z,2.57
